Skydive Austral Airstrip

MU-0002 · Rivière du Rempart, 毛里求斯

罗盘
风向 的 风向 130°
风: 3 kt, 1 beaufort

添加一条跑道以查看侧风和逆风信息。

添置 跑道
0 1.000 2.000 3.000 4.000 5.000
FEW 1.800 ft
METAR FIMP 031600Z 13003KT 9999 FEW018 25/19 Q1014

METAR Skydive Austral Airstrip - MU-0002

Skydive Austral Airstrip是,毛里求斯中的小机场。 该领域的国际民航组织标志是MU-0002.

这份报告是针对2022年12月3日 20:00, 当地时间在西沃萨古尔·拉姆古兰爵士国际机场进行的。

机场观察

风向为130°,速度为3 kt。

可见度为10 km 或者更多。

有几云在1.800 ft的高度。 没有观察到天花板。

温度和风寒是25 °C。 露点为19 °C,相对湿度为69%。 海平面上的气压为1014 hPa (QNH)。

白天

今天,太阳从05:20升起,在18:37降落。 这适用于Skydive Austral Airstrip,世界夏令时可能有所不同。 当地时间与世界标准时间之间的时差为+4 小时。 当前,没有夏令时有效。

公司介绍

我们没有关于这个机场的公司信息。

体会

到Vliegles.nl去找飞行课程,跳伞和其他飞行体验。 浏览页面,了解Skydive Austral Airstrip附近所有可用的活动。 你也可以使用搜索功能来寻找你所在地附近的特定飞行课程、跳伞或其他飞行体验。

乌云

1.800 ft FEW 几云

温度 & 天气

温度 25 °C
露点 19 °C
相对湿度 69%
Kp-index 2 (0-9)

白天

日出
05:20 (8:30)
中午
11:58
日落
18:37

小工具

你想在你的网站上有一个关于Skydive Austral Airstrip的当前航空天气(METAR)的小部件吗?

显示HTML代码

我们和第三方通过cookies跟踪您在我们网站上的互联网行为。如果你继续,我们认为你同意我们的饼干政策